sensor_id;sensor_type;location;lat;lon;timestamp;temperature;humidity
42365;DHT22;28498;54.400;18.566;2023-09-19T00:01:41;19.60;99.90
42365;DHT22;28498;54.400;18.566;2023-09-19T00:04:08;19.60;99.90
42365;DHT22;28498;54.400;18.566;2023-09-19T00:06:37;19.60;99.90
42365;DHT22;28498;54.400;18.566;2023-09-19T00:09:05;19.60;99.90
42365;DHT22;28498;54.400;18.566;2023-09-19T00:11:32;19.70;99.90
42365;DHT22;28498;54.400;18.566;2023-09-19T00:14:01;19.70;99.90
42365;DHT22;28498;54.400;18.566;2023-09-19T00:16:28;19.70;99.90
42365;DHT22;28498;54.400;18.566;2023-09-19T00:18:55;19.70;99.90
42365;DHT22;28498;54.400;18.566;2023-09-19T00:21:22;19.70;99.90
42365;DHT22;28498;54.400;18.566;2023-09-19T00:23:49;19.80;99.90
42365;DHT22;28498;54.400;18.566;2023-09-19T00:26:18;19.80;99.90
42365;DHT22;28498;54.400;18.566;2023-09-19T00:28:45;19.80;99.90
42365;DHT22;28498;54.400;18.566;2023-09-19T00:31:12;19.80;99.90
42365;DHT22;28498;54.400;18.566;2023-09-19T00:33:39;19.70;99.90
42365;DHT22;28498;54.400;18.566;2023-09-19T00:36:06;19.50;99.90
42365;DHT22;28498;54.400;18.566;2023-09-19T00:38:33;19.40;99.90
42365;DHT22;28498;54.400;18.566;2023-09-19T00:41:00;19.20;99.90
42365;DHT22;28498;54.400;18.566;2023-09-19T00:43:27;19.10;99.90
42365;DHT22;28498;54.400;18.566;2023-09-19T00:45:56;19.00;99.90
42365;DHT22;28498;54.400;18.566;2023-09-19T00:48:24;18.90;99.90
42365;DHT22;28498;54.400;18.566;2023-09-19T00:50:58;18.80;99.90
42365;DHT22;28498;54.400;18.566;2023-09-19T00:53:26;18.70;99.90
42365;DHT22;28498;54.400;18.566;2023-09-19T00:55:54;18.50;99.90
42365;DHT22;28498;54.400;18.566;2023-09-19T00:58:23;18.40;99.90
42365;DHT22;28498;54.400;18.566;2023-09-19T01:00:50;18.40;99.90
42365;DHT22;28498;54.400;18.566;2023-09-19T01:03:17;18.40;99.90
42365;DHT22;28498;54.400;18.566;2023-09-19T01:05:45;18.30;99.90
42365;DHT22;28498;54.400;18.566;2023-09-19T01:08:12;18.30;99.90
42365;DHT22;28498;54.400;18.566;2023-09-19T01:11:01;18.30;99.90
42365;DHT22;28498;54.400;18.566;2023-09-19T01:19:19;18.20;99.90
42365;DHT22;28498;54.400;18.566;2023-09-19T01:22:00;18.30;99.90
42365;DHT22;28498;54.400;18.566;2023-09-19T01:24:58;18.30;99.90
42365;DHT22;28498;54.400;18.566;2023-09-19T01:30:32;18.60;99.90
42365;DHT22;28498;54.400;18.566;2023-09-19T01:33:00;18.80;99.90
42365;DHT22;28498;54.400;18.566;2023-09-19T01:35:27;19.00;99.90
42365;DHT22;28498;54.400;18.566;2023-09-19T01:37:54;19.10;99.90
42365;DHT22;28498;54.400;18.566;2023-09-19T01:40:22;19.00;99.90
42365;DHT22;28498;54.400;18.566;2023-09-19T01:46:15;18.90;99.90
42365;DHT22;28498;54.400;18.566;2023-09-19T01:48:46;18.80;99.90
42365;DHT22;28498;54.400;18.566;2023-09-19T01:51:42;18.70;99.90
42365;DHT22;28498;54.400;18.566;2023-09-19T01:54:12;18.60;99.90
42365;DHT22;28498;54.400;18.566;2023-09-19T01:59:13;18.60;99.90
42365;DHT22;28498;54.400;18.566;2023-09-19T02:01:44;18.70;99.90
42365;DHT22;28498;54.400;18.566;2023-09-19T02:04:12;18.90;99.90
42365;DHT22;28498;54.400;18.566;2023-09-19T02:06:40;19.10;99.90
42365;DHT22;28498;54.400;18.566;2023-09-19T02:09:08;19.10;99.90
42365;DHT22;28498;54.400;18.566;2023-09-19T02:11:35;19.10;99.90
42365;DHT22;28498;54.400;18.566;2023-09-19T02:14:03;19.30;99.90
42365;DHT22;28498;54.400;18.566;2023-09-19T02:16:31;19.20;99.90
42365;DHT22;28498;54.400;18.566;2023-09-19T02:18:58;19.40;99.90
42365;DHT22;28498;54.400;18.566;2023-09-19T02:21:26;19.50;99.90
42365;DHT22;28498;54.400;18.566;2023-09-19T02:23:57;19.40;99.90
42365;DHT22;28498;54.400;18.566;2023-09-19T02:26:25;19.40;99.90
42365;DHT22;28498;54.400;18.566;2023-09-19T02:28:54;19.40;99.90
42365;DHT22;28498;54.400;18.566;2023-09-19T02:31:21;19.30;99.90
42365;DHT22;28498;54.400;18.566;2023-09-19T02:33:48;19.40;99.90
42365;DHT22;28498;54.400;18.566;2023-09-19T02:36:15;19.40;99.90
42365;DHT22;28498;54.400;18.566;2023-09-19T02:38:44;19.40;99.90
42365;DHT22;28498;54.400;18.566;2023-09-19T02:41:11;19.40;99.90
42365;DHT22;28498;54.400;18.566;2023-09-19T02:43:38;19.30;99.90
42365;DHT22;28498;54.400;18.566;2023-09-19T02:46:06;19.40;99.90
42365;DHT22;28498;54.400;18.566;2023-09-19T02:48:33;19.40;99.90
42365;DHT22;28498;54.400;18.566;2023-09-19T02:51:02;19.30;99.90
42365;DHT22;28498;54.400;18.566;2023-09-19T02:53:30;19.30;99.90
42365;DHT22;28498;54.400;18.566;2023-09-19T02:55:58;19.30;99.90
42365;DHT22;28498;54.400;18.566;2023-09-19T02:58:25;19.30;99.90
42365;DHT22;28498;54.400;18.566;2023-09-19T03:00:54;19.20;99.90
42365;DHT22;28498;54.400;18.566;2023-09-19T03:03:22;19.10;99.90
42365;DHT22;28498;54.400;18.566;2023-09-19T03:05:49;19.20;99.90
42365;DHT22;28498;54.400;18.566;2023-09-19T03:08:21;19.00;99.90
42365;DHT22;28498;54.400;18.566;2023-09-19T03:10:48;19.00;99.90
42365;DHT22;28498;54.400;18.566;2023-09-19T03:13:16;18.90;99.90
42365;DHT22;28498;54.400;18.566;2023-09-19T03:15:43;18.80;99.90
42365;DHT22;28498;54.400;18.566;2023-09-19T03:18:14;18.70;99.90
42365;DHT22;28498;54.400;18.566;2023-09-19T03:20:41;18.60;99.90
42365;DHT22;28498;54.400;18.566;2023-09-19T03:23:08;18.60;99.90
42365;DHT22;28498;54.400;18.566;2023-09-19T03:25:36;18.50;99.90
42365;DHT22;28498;54.400;18.566;2023-09-19T03:28:03;18.40;99.90
42365;DHT22;28498;54.400;18.566;2023-09-19T03:30:34;18.30;99.90
42365;DHT22;28498;54.400;18.566;2023-09-19T03:33:01;18.30;99.90
42365;DHT22;28498;54.400;18.566;2023-09-19T03:35:28;18.30;99.90
42365;DHT22;28498;54.400;18.566;2023-09-19T03:37:55;18.30;99.90
42365;DHT22;28498;54.400;18.566;2023-09-19T03:40:22;18.20;99.90
42365;DHT22;28498;54.400;18.566;2023-09-19T03:42:50;18.30;99.90
42365;DHT22;28498;54.400;18.566;2023-09-19T03:45:17;18.20;99.90
42365;DHT22;28498;54.400;18.566;2023-09-19T03:47:45;18.10;99.90
42365;DHT22;28498;54.400;18.566;2023-09-19T03:50:14;18.00;99.90
42365;DHT22;28498;54.400;18.566;2023-09-19T03:52:45;17.90;99.90
42365;DHT22;28498;54.400;18.566;2023-09-19T03:55:12;17.80;99.90
42365;DHT22;28498;54.400;18.566;2023-09-19T03:57:39;17.60;99.90
42365;DHT22;28498;54.400;18.566;2023-09-19T04:00:07;17.60;99.90
42365;DHT22;28498;54.400;18.566;2023-09-19T04:02:39;17.50;99.90
42365;DHT22;28498;54.400;18.566;2023-09-19T04:05:07;17.40;99.90
42365;DHT22;28498;54.400;18.566;2023-09-19T04:07:34;17.30;99.90
42365;DHT22;28498;54.400;18.566;2023-09-19T04:10:02;17.30;99.90
42365;DHT22;28498;54.400;18.566;2023-09-19T04:12:29;17.30;99.90
42365;DHT22;28498;54.400;18.566;2023-09-19T04:14:57;17.30;99.90
42365;DHT22;28498;54.400;18.566;2023-09-19T04:17:24;17.30;99.90
42365;DHT22;28498;54.400;18.566;2023-09-19T04:19:51;17.20;99.90
42365;DHT22;28498;54.400;18.566;2023-09-19T04:22:18;17.20;99.90
42365;DHT22;28498;54.400;18.566;2023-09-19T04:24:45;17.20;99.90
42365;DHT22;28498;54.400;18.566;2023-09-19T04:27:12;17.20;99.90
42365;DHT22;28498;54.400;18.566;2023-09-19T04:29:42;17.20;99.90
42365;DHT22;28498;54.400;18.566;2023-09-19T04:32:09;17.20;99.90
42365;DHT22;28498;54.400;18.566;2023-09-19T04:34:36;17.10;99.90
42365;DHT22;28498;54.400;18.566;2023-09-19T04:37:05;17.20;99.90
42365;DHT22;28498;54.400;18.566;2023-09-19T04:39:32;17.20;99.90
42365;DHT22;28498;54.400;18.566;2023-09-19T04:42:01;17.20;99.90
42365;DHT22;28498;54.400;18.566;2023-09-19T04:44:28;17.20;99.90
42365;DHT22;28498;54.400;18.566;2023-09-19T04:46:55;17.20;99.90
42365;DHT22;28498;54.400;18.566;2023-09-19T04:49:22;17.20;99.90
42365;DHT22;28498;54.400;18.566;2023-09-19T04:51:49;17.20;99.90
42365;DHT22;28498;54.400;18.566;2023-09-19T04:54:17;17.20;99.90
42365;DHT22;28498;54.400;18.566;2023-09-19T04:56:45;17.20;99.90
42365;DHT22;28498;54.400;18.566;2023-09-19T04:59:12;17.20;99.90
42365;DHT22;28498;54.400;18.566;2023-09-19T05:01:39;17.20;99.90
42365;DHT22;28498;54.400;18.566;2023-09-19T05:04:06;17.20;99.90
42365;DHT22;28498;54.400;18.566;2023-09-19T05:06:33;17.30;99.90
42365;DHT22;28498;54.400;18.566;2023-09-19T05:09:00;17.20;99.90
42365;DHT22;28498;54.400;18.566;2023-09-19T05:11:28;17.30;99.90
42365;DHT22;28498;54.400;18.566;2023-09-19T05:13:57;17.30;99.90
42365;DHT22;28498;54.400;18.566;2023-09-19T05:16:29;17.30;99.90
42365;DHT22;28498;54.400;18.566;2023-09-19T05:18:58;17.30;99.90
42365;DHT22;28498;54.400;18.566;2023-09-19T05:21:26;17.30;99.90
42365;DHT22;28498;54.400;18.566;2023-09-19T05:23:55;17.30;99.90
42365;DHT22;28498;54.400;18.566;2023-09-19T05:26:23;17.30;99.90
42365;DHT22;28498;54.400;18.566;2023-09-19T05:28:50;17.30;99.90
42365;DHT22;28498;54.400;18.566;2023-09-19T05:31:17;17.40;99.90
42365;DHT22;28498;54.400;18.566;2023-09-19T05:33:45;17.30;99.90
42365;DHT22;28498;54.400;18.566;2023-09-19T05:36:12;17.40;99.90
42365;DHT22;28498;54.400;18.566;2023-09-19T05:38:39;17.40;99.90
42365;DHT22;28498;54.400;18.566;2023-09-19T05:41:08;17.40;99.90
42365;DHT22;28498;54.400;18.566;2023-09-19T05:43:36;17.30;99.90
42365;DHT22;28498;54.400;18.566;2023-09-19T05:46:04;17.40;99.90
42365;DHT22;28498;54.400;18.566;2023-09-19T05:48:31;17.50;99.90
42365;DHT22;28498;54.400;18.566;2023-09-19T05:50:59;17.40;99.90
42365;DHT22;28498;54.400;18.566;2023-09-19T05:53:28;17.50;99.90
42365;DHT22;28498;54.400;18.566;2023-09-19T05:55:55;17.50;99.90
42365;DHT22;28498;54.400;18.566;2023-09-19T05:58:22;17.50;99.90
42365;DHT22;28498;54.400;18.566;2023-09-19T06:00:50;17.60;99.90
42365;DHT22;28498;54.400;18.566;2023-09-19T06:03:17;17.70;99.90
42365;DHT22;28498;54.400;18.566;2023-09-19T06:05:46;17.70;99.90
42365;DHT22;28498;54.400;18.566;2023-09-19T06:08:16;17.70;99.90
42365;DHT22;28498;54.400;18.566;2023-09-19T06:10:43;17.70;99.90
42365;DHT22;28498;54.400;18.566;2023-09-19T06:13:10;17.70;99.90
42365;DHT22;28498;54.400;18.566;2023-09-19T06:15:37;17.70;99.90
42365;DHT22;28498;54.400;18.566;2023-09-19T06:18:04;17.90;99.90
42365;DHT22;28498;54.400;18.566;2023-09-19T06:20:32;17.90;99.90
42365;DHT22;28498;54.400;18.566;2023-09-19T06:23:00;17.90;99.90
42365;DHT22;28498;54.400;18.566;2023-09-19T06:25:29;18.00;99.90
42365;DHT22;28498;54.400;18.566;2023-09-19T06:27:56;18.00;99.90
42365;DHT22;28498;54.400;18.566;2023-09-19T06:30:24;18.10;99.90
42365;DHT22;28498;54.400;18.566;2023-09-19T06:32:56;18.20;99.90
42365;DHT22;28498;54.400;18.566;2023-09-19T06:35:24;18.40;99.90
42365;DHT22;28498;54.400;18.566;2023-09-19T06:37:53;18.40;99.90
42365;DHT22;28498;54.400;18.566;2023-09-19T06:40:20;18.40;99.90
42365;DHT22;28498;54.400;18.566;2023-09-19T06:42:50;18.40;99.90
42365;DHT22;28498;54.400;18.566;2023-09-19T06:45:18;18.60;99.90
42365;DHT22;28498;54.400;18.566;2023-09-19T06:47:46;18.70;99.90
42365;DHT22;28498;54.400;18.566;2023-09-19T06:50:18;18.80;99.90
42365;DHT22;28498;54.400;18.566;2023-09-19T06:52:46;18.70;99.90
42365;DHT22;28498;54.400;18.566;2023-09-19T06:55:21;18.70;99.90
42365;DHT22;28498;54.400;18.566;2023-09-19T06:57:48;18.70;99.90
42365;DHT22;28498;54.400;18.566;2023-09-19T07:00:16;18.70;99.90
42365;DHT22;28498;54.400;18.566;2023-09-19T07:02:54;18.70;99.90
42365;DHT22;28498;54.400;18.566;2023-09-19T07:05:21;18.70;99.90
42365;DHT22;28498;54.400;18.566;2023-09-19T07:07:48;18.70;99.90
42365;DHT22;28498;54.400;18.566;2023-09-19T07:10:16;18.70;99.90
42365;DHT22;28498;54.400;18.566;2023-09-19T07:12:43;18.90;99.90
42365;DHT22;28498;54.400;18.566;2023-09-19T07:15:10;18.80;99.90
42365;DHT22;28498;54.400;18.566;2023-09-19T07:17:37;19.00;99.90
42365;DHT22;28498;54.400;18.566;2023-09-19T07:20:05;19.20;99.90
42365;DHT22;28498;54.400;18.566;2023-09-19T07:22:34;19.20;99.90
42365;DHT22;28498;54.400;18.566;2023-09-19T07:25:03;19.10;99.90
42365;DHT22;28498;54.400;18.566;2023-09-19T07:27:30;19.20;99.90
42365;DHT22;28498;54.400;18.566;2023-09-19T07:29:57;19.40;99.90
42365;DHT22;28498;54.400;18.566;2023-09-19T07:32:25;19.40;99.90
42365;DHT22;28498;54.400;18.566;2023-09-19T07:34:53;19.60;99.90
42365;DHT22;28498;54.400;18.566;2023-09-19T07:37:22;19.60;99.90
42365;DHT22;28498;54.400;18.566;2023-09-19T07:39:49;19.50;99.90
42365;DHT22;28498;54.400;18.566;2023-09-19T07:42:17;19.70;99.90
42365;DHT22;28498;54.400;18.566;2023-09-19T07:44:44;19.80;99.90
42365;DHT22;28498;54.400;18.566;2023-09-19T07:47:20;19.70;99.90
42365;DHT22;28498;54.400;18.566;2023-09-19T07:49:47;19.80;99.90
42365;DHT22;28498;54.400;18.566;2023-09-19T07:52:15;19.90;99.90
42365;DHT22;28498;54.400;18.566;2023-09-19T07:54:43;19.90;99.90
42365;DHT22;28498;54.400;18.566;2023-09-19T07:57:11;20.10;99.90
42365;DHT22;28498;54.400;18.566;2023-09-19T07:59:38;20.10;99.90
42365;DHT22;28498;54.400;18.566;2023-09-19T08:02:05;20.10;99.90
42365;DHT22;28498;54.400;18.566;2023-09-19T08:04:35;20.10;99.90
42365;DHT22;28498;54.400;18.566;2023-09-19T08:07:03;20.00;99.90
42365;DHT22;28498;54.400;18.566;2023-09-19T08:09:31;19.90;99.90
42365;DHT22;28498;54.400;18.566;2023-09-19T08:12:00;20.00;99.90
42365;DHT22;28498;54.400;18.566;2023-09-19T08:14:32;20.00;99.90
42365;DHT22;28498;54.400;18.566;2023-09-19T08:16:59;20.00;99.90
42365;DHT22;28498;54.400;18.566;2023-09-19T08:19:27;20.20;99.90
42365;DHT22;28498;54.400;18.566;2023-09-19T08:21:58;20.30;99.90
42365;DHT22;28498;54.400;18.566;2023-09-19T08:24:29;20.60;99.90
42365;DHT22;28498;54.400;18.566;2023-09-19T08:26:57;20.40;99.90
42365;DHT22;28498;54.400;18.566;2023-09-19T08:29:24;20.50;99.90
42365;DHT22;28498;54.400;18.566;2023-09-19T08:31:57;20.80;99.90
42365;DHT22;28498;54.400;18.566;2023-09-19T08:34:25;20.70;99.90
42365;DHT22;28498;54.400;18.566;2023-09-19T08:36:54;20.70;99.90
42365;DHT22;28498;54.400;18.566;2023-09-19T08:39:25;20.80;99.90
42365;DHT22;28498;54.400;18.566;2023-09-19T08:41:59;20.80;99.90
42365;DHT22;28498;54.400;18.566;2023-09-19T08:44:27;21.10;99.90
42365;DHT22;28498;54.400;18.566;2023-09-19T08:47:26;21.30;99.90
42365;DHT22;28498;54.400;18.566;2023-09-19T08:50:20;21.30;99.90
42365;DHT22;28498;54.400;18.566;2023-09-19T08:52:52;21.10;99.90
42365;DHT22;28498;54.400;18.566;2023-09-19T08:55:26;20.80;99.90
42365;DHT22;28498;54.400;18.566;2023-09-19T08:58:10;20.90;99.90
42365;DHT22;28498;54.400;18.566;2023-09-19T09:00:38;21.10;99.90
42365;DHT22;28498;54.400;18.566;2023-09-19T09:03:09;21.30;99.90
42365;DHT22;28498;54.400;18.566;2023-09-19T09:05:37;21.50;99.90
42365;DHT22;28498;54.400;18.566;2023-09-19T09:08:07;21.60;99.90
42365;DHT22;28498;54.400;18.566;2023-09-19T09:10:35;21.70;99.90
42365;DHT22;28498;54.400;18.566;2023-09-19T09:13:02;21.40;99.90
42365;DHT22;28498;54.400;18.566;2023-09-19T09:15:31;21.40;99.90
42365;DHT22;28498;54.400;18.566;2023-09-19T09:18:02;21.60;99.90
42365;DHT22;28498;54.400;18.566;2023-09-19T09:20:31;21.60;99.90
42365;DHT22;28498;54.400;18.566;2023-09-19T09:22:58;21.80;99.90
42365;DHT22;28498;54.400;18.566;2023-09-19T09:25:52;21.90;99.90
42365;DHT22;28498;54.400;18.566;2023-09-19T09:28:30;22.30;99.90
42365;DHT22;28498;54.400;18.566;2023-09-19T09:30:58;22.10;99.90
42365;DHT22;28498;54.400;18.566;2023-09-19T09:33:25;21.80;99.90
42365;DHT22;28498;54.400;18.566;2023-09-19T09:36:00;21.40;99.90
42365;DHT22;28498;54.400;18.566;2023-09-19T09:38:42;21.20;99.90
42365;DHT22;28498;54.400;18.566;2023-09-19T09:41:10;21.20;99.90
42365;DHT22;28498;54.400;18.566;2023-09-19T09:43:42;21.20;99.90
42365;DHT22;28498;54.400;18.566;2023-09-19T09:46:15;21.00;99.90
42365;DHT22;28498;54.400;18.566;2023-09-19T09:49:03;21.10;99.90
42365;DHT22;28498;54.400;18.566;2023-09-19T09:52:03;21.20;99.90
42365;DHT22;28498;54.400;18.566;2023-09-19T09:55:00;21.40;99.90
42365;DHT22;28498;54.400;18.566;2023-09-19T09:57:33;21.20;99.90
42365;DHT22;28498;54.400;18.566;2023-09-19T10:00:01;20.90;99.90
42365;DHT22;28498;54.400;18.566;2023-09-19T10:02:40;20.90;99.90
42365;DHT22;28498;54.400;18.566;2023-09-19T10:05:19;21.10;99.90
42365;DHT22;28498;54.400;18.566;2023-09-19T10:07:50;21.30;99.90
42365;DHT22;28498;54.400;18.566;2023-09-19T10:10:32;21.40;99.90
42365;DHT22;28498;54.400;18.566;2023-09-19T10:13:10;21.50;99.90
42365;DHT22;28498;54.400;18.566;2023-09-19T10:15:43;21.70;99.90
42365;DHT22;28498;54.400;18.566;2023-09-19T10:18:16;21.50;99.90
42365;DHT22;28498;54.400;18.566;2023-09-19T10:20:47;20.90;99.90
42365;DHT22;28498;54.400;18.566;2023-09-19T10:23:18;20.80;99.90
42365;DHT22;28498;54.400;18.566;2023-09-19T10:25:53;21.00;99.90
42365;DHT22;28498;54.400;18.566;2023-09-19T10:28:21;20.90;99.90
42365;DHT22;28498;54.400;18.566;2023-09-19T10:30:51;21.20;99.90
42365;DHT22;28498;54.400;18.566;2023-09-19T10:33:24;21.30;99.90
42365;DHT22;28498;54.400;18.566;2023-09-19T10:35:54;21.40;99.90
42365;DHT22;28498;54.400;18.566;2023-09-19T10:38:24;21.40;99.90
42365;DHT22;28498;54.400;18.566;2023-09-19T10:40:53;21.20;99.90
42365;DHT22;28498;54.400;18.566;2023-09-19T10:43:25;21.10;99.90
42365;DHT22;28498;54.400;18.566;2023-09-19T10:45:53;21.20;99.90
42365;DHT22;28498;54.400;18.566;2023-09-19T10:48:24;21.30;99.90
42365;DHT22;28498;54.400;18.566;2023-09-19T10:51:16;21.70;99.90
42365;DHT22;28498;54.400;18.566;2023-09-19T10:53:56;22.00;99.90
42365;DHT22;28498;54.400;18.566;2023-09-19T10:56:32;22.20;99.90
42365;DHT22;28498;54.400;18.566;2023-09-19T10:59:09;22.30;99.90
42365;DHT22;28498;54.400;18.566;2023-09-19T11:01:49;22.50;99.90
42365;DHT22;28498;54.400;18.566;2023-09-19T11:04:32;23.10;99.90
42365;DHT22;28498;54.400;18.566;2023-09-19T11:07:10;23.30;99.90
42365;DHT22;28498;54.400;18.566;2023-09-19T11:15:08;23.10;99.90
42365;DHT22;28498;54.400;18.566;2023-09-19T11:17:39;22.40;99.90
42365;DHT22;28498;54.400;18.566;2023-09-19T11:30:49;22.10;99.90
42365;DHT22;28498;54.400;18.566;2023-09-19T11:33:17;22.50;99.90
42365;DHT22;28498;54.400;18.566;2023-09-19T11:46:33;22.10;99.90
42365;DHT22;28498;54.400;18.566;2023-09-19T11:49:08;21.90;99.90
42365;DHT22;28498;54.400;18.566;2023-09-19T11:51:43;22.40;99.90
42365;DHT22;28498;54.400;18.566;2023-09-19T11:54:12;22.60;99.90
42365;DHT22;28498;54.400;18.566;2023-09-19T11:56:46;22.40;99.90
42365;DHT22;28498;54.400;18.566;2023-09-19T11:59:23;22.60;99.90
42365;DHT22;28498;54.400;18.566;2023-09-19T12:01:52;22.40;99.90
42365;DHT22;28498;54.400;18.566;2023-09-19T12:07:08;22.50;99.90
42365;DHT22;28498;54.400;18.566;2023-09-19T12:09:44;22.40;99.90
42365;DHT22;28498;54.400;18.566;2023-09-19T12:12:23;22.50;99.90
42365;DHT22;28498;54.400;18.566;2023-09-19T12:14:55;22.30;99.90
42365;DHT22;28498;54.400;18.566;2023-09-19T12:17:41;21.70;99.90
42365;DHT22;28498;54.400;18.566;2023-09-19T12:20:12;21.40;99.90
42365;DHT22;28498;54.400;18.566;2023-09-19T12:22:44;21.30;99.90
42365;DHT22;28498;54.400;18.566;2023-09-19T12:25:13;21.40;99.90
42365;DHT22;28498;54.400;18.566;2023-09-19T12:30:12;21.00;99.90
42365;DHT22;28498;54.400;18.566;2023-09-19T12:32:53;21.10;99.90
42365;DHT22;28498;54.400;18.566;2023-09-19T12:35:32;20.80;99.90
42365;DHT22;28498;54.400;18.566;2023-09-19T12:38:03;21.00;99.90
42365;DHT22;28498;54.400;18.566;2023-09-19T12:40:31;21.20;99.90
42365;DHT22;28498;54.400;18.566;2023-09-19T12:43:01;21.00;99.90
42365;DHT22;28498;54.400;18.566;2023-09-19T12:45:31;21.20;99.90
42365;DHT22;28498;54.400;18.566;2023-09-19T12:51:09;21.50;99.90
42365;DHT22;28498;54.400;18.566;2023-09-19T12:53:41;21.80;99.90
42365;DHT22;28498;54.400;18.566;2023-09-19T12:56:14;21.40;99.90
42365;DHT22;28498;54.400;18.566;2023-09-19T13:01:24;21.90;99.90
42365;DHT22;28498;54.400;18.566;2023-09-19T13:04:14;22.10;99.90
42365;DHT22;28498;54.400;18.566;2023-09-19T13:06:55;22.40;99.90
42365;DHT22;28498;54.400;18.566;2023-09-19T13:09:23;22.90;99.90
42365;DHT22;28498;54.400;18.566;2023-09-19T13:12:02;22.90;95.90
42365;DHT22;28498;54.400;18.566;2023-09-19T13:14:30;22.90;92.60
42365;DHT22;28498;54.400;18.566;2023-09-19T13:17:08;22.60;87.20
42365;DHT22;28498;54.400;18.566;2023-09-19T13:19:48;22.20;89.00
42365;DHT22;28498;54.400;18.566;2023-09-19T13:22:40;22.40;94.20
42365;DHT22;28498;54.400;18.566;2023-09-19T13:25:21;22.70;93.60
42365;DHT22;28498;54.400;18.566;2023-09-19T13:27:53;22.80;90.30
42365;DHT22;28498;54.400;18.566;2023-09-19T13:30:25;22.40;85.70
42365;DHT22;28498;54.400;18.566;2023-09-19T13:33:04;22.30;91.50
42365;DHT22;28498;54.400;18.566;2023-09-19T13:35:32;22.20;91.10
42365;DHT22;28498;54.400;18.566;2023-09-19T13:38:00;22.10;91.10
42365;DHT22;28498;54.400;18.566;2023-09-19T13:40:28;22.20;93.00
42365;DHT22;28498;54.400;18.566;2023-09-19T13:42:58;21.80;90.90
42365;DHT22;28498;54.400;18.566;2023-09-19T13:45:26;21.80;90.50
42365;DHT22;28498;54.400;18.566;2023-09-19T13:47:53;21.60;91.00
42365;DHT22;28498;54.400;18.566;2023-09-19T13:50:21;21.30;92.80
42365;DHT22;28498;54.400;18.566;2023-09-19T13:52:51;21.20;94.10
42365;DHT22;28498;54.400;18.566;2023-09-19T13:55:20;21.40;94.00
42365;DHT22;28498;54.400;18.566;2023-09-19T13:57:48;21.60;93.90
42365;DHT22;28498;54.400;18.566;2023-09-19T14:00:22;21.60;95.80
42365;DHT22;28498;54.400;18.566;2023-09-19T14:02:49;21.90;97.50
42365;DHT22;28498;54.400;18.566;2023-09-19T14:05:18;22.00;97.60
42365;DHT22;28498;54.400;18.566;2023-09-19T14:07:48;21.80;98.00
42365;DHT22;28498;54.400;18.566;2023-09-19T14:10:15;21.50;99.90
42365;DHT22;28498;54.400;18.566;2023-09-19T14:12:45;21.20;99.90
42365;DHT22;28498;54.400;18.566;2023-09-19T14:15:12;20.90;99.90
42365;DHT22;28498;54.400;18.566;2023-09-19T14:17:40;20.60;99.90
42365;DHT22;28498;54.400;18.566;2023-09-19T14:20:12;20.70;99.90
42365;DHT22;28498;54.400;18.566;2023-09-19T14:22:41;20.80;99.90
42365;DHT22;28498;54.400;18.566;2023-09-19T14:25:08;20.90;99.90
42365;DHT22;28498;54.400;18.566;2023-09-19T14:27:36;21.00;99.90
42365;DHT22;28498;54.400;18.566;2023-09-19T14:30:03;21.10;99.90
42365;DHT22;28498;54.400;18.566;2023-09-19T14:32:31;21.30;99.90
42365;DHT22;28498;54.400;18.566;2023-09-19T14:34:58;21.40;99.90
42365;DHT22;28498;54.400;18.566;2023-09-19T14:37:25;21.90;99.90
42365;DHT22;28498;54.400;18.566;2023-09-19T14:39:54;22.00;99.80
42365;DHT22;28498;54.400;18.566;2023-09-19T14:42:22;21.90;98.20
42365;DHT22;28498;54.400;18.566;2023-09-19T14:44:49;22.40;99.90
42365;DHT22;28498;54.400;18.566;2023-09-19T14:47:16;22.90;98.80
42365;DHT22;28498;54.400;18.566;2023-09-19T14:49:44;23.60;91.90
42365;DHT22;28498;54.400;18.566;2023-09-19T14:52:11;23.90;90.90
42365;DHT22;28498;54.400;18.566;2023-09-19T14:54:42;24.20;84.90
42365;DHT22;28498;54.400;18.566;2023-09-19T14:57:10;23.80;83.00
42365;DHT22;28498;54.400;18.566;2023-09-19T14:59:38;23.50;86.00
42365;DHT22;28498;54.400;18.566;2023-09-19T15:02:06;22.80;85.50
42365;DHT22;28498;54.400;18.566;2023-09-19T15:04:34;22.30;88.70
42365;DHT22;28498;54.400;18.566;2023-09-19T15:07:01;22.30;90.10
42365;DHT22;28498;54.400;18.566;2023-09-19T15:09:29;21.80;90.80
42365;DHT22;28498;54.400;18.566;2023-09-19T15:11:59;21.50;95.80
42365;DHT22;28498;54.400;18.566;2023-09-19T15:14:26;21.40;99.60
42365;DHT22;28498;54.400;18.566;2023-09-19T15:16:54;21.40;98.20
42365;DHT22;28498;54.400;18.566;2023-09-19T15:19:21;21.60;95.90
42365;DHT22;28498;54.400;18.566;2023-09-19T15:21:49;21.30;96.50
42365;DHT22;28498;54.400;18.566;2023-09-19T15:24:16;21.60;98.80
42365;DHT22;28498;54.400;18.566;2023-09-19T15:26:45;21.30;96.00
42365;DHT22;28498;54.400;18.566;2023-09-19T15:29:13;21.20;98.60
42365;DHT22;28498;54.400;18.566;2023-09-19T15:31:40;21.20;98.20
42365;DHT22;28498;54.400;18.566;2023-09-19T15:34:07;21.10;99.10
42365;DHT22;28498;54.400;18.566;2023-09-19T15:36:36;20.60;99.90
42365;DHT22;28498;54.400;18.566;2023-09-19T15:39:06;20.50;99.90
42365;DHT22;28498;54.400;18.566;2023-09-19T15:41:35;20.20;99.90
42365;DHT22;28498;54.400;18.566;2023-09-19T15:44:14;20.10;99.90
42365;DHT22;28498;54.400;18.566;2023-09-19T15:46:42;20.00;99.90
42365;DHT22;28498;54.400;18.566;2023-09-19T15:49:11;19.90;99.90
42365;DHT22;28498;54.400;18.566;2023-09-19T15:51:38;19.60;99.90
42365;DHT22;28498;54.400;18.566;2023-09-19T15:54:11;19.40;99.90
42365;DHT22;28498;54.400;18.566;2023-09-19T15:56:41;19.20;99.90
42365;DHT22;28498;54.400;18.566;2023-09-19T15:59:09;19.10;98.70
42365;DHT22;28498;54.400;18.566;2023-09-19T16:01:40;19.00;99.90
42365;DHT22;28498;54.400;18.566;2023-09-19T16:04:10;18.80;99.90
42365;DHT22;28498;54.400;18.566;2023-09-19T16:06:39;18.80;99.90
42365;DHT22;28498;54.400;18.566;2023-09-19T16:09:08;18.60;99.90
42365;DHT22;28498;54.400;18.566;2023-09-19T16:11:35;18.50;99.90
42365;DHT22;28498;54.400;18.566;2023-09-19T16:14:03;18.30;99.90
42365;DHT22;28498;54.400;18.566;2023-09-19T16:16:31;18.10;99.90
42365;DHT22;28498;54.400;18.566;2023-09-19T16:19:01;18.00;99.90
42365;DHT22;28498;54.400;18.566;2023-09-19T16:21:31;17.90;99.90
42365;DHT22;28498;54.400;18.566;2023-09-19T16:23:59;17.80;99.90
42365;DHT22;28498;54.400;18.566;2023-09-19T16:26:27;17.70;99.90